Time;durP1;ratioP1;P1;durP2;ratioP2;P2;SDS_P1;SDS_P2;PMS_P1;PMS_P2;Temp;Humidity;BMP_temperature;BMP_pressure;BME280_temperature;BME280_humidity;BME280_pressure;Samples;Min_cycle;Max_cycle;Signal;HPM_P1;HPM_P2
2024/04/15 00:01:48;;;;;;;10.37;3.23;;;;;;;17.23;61.15;100149.05;1450249;89;21467;-81
2024/04/15 00:04:14;;;;;;;8.67;3.33;;;;;;;17.20;61.31;100149.45;1436281;90;22322;-81
2024/04/15 00:06:40;;;;;;;4.60;2.90;;;;;;;17.17;61.46;100139.15;1436595;91;21496;-79
2024/04/15 00:09:06;;;;;;;10.07;4.03;;;;;;;17.14;61.42;100143.55;1433085;90;21569;-82
2024/04/15 00:11:33;;;;;;;8.40;3.10;;;;;;;17.08;61.32;100135.81;1427550;91;21487;-81
2024/04/15 00:13:59;;;;;;;17.70;4.83;;;;;;;17.04;61.55;100138.58;1442583;90;21578;-81
2024/04/15 00:16:25;;;;;;;12.00;3.10;;;;;;;17.00;61.58;100137.30;1440288;90;21398;-79
2024/04/15 00:18:51;;;;;;;9.43;3.13;;;;;;;16.95;61.84;100135.75;1419550;91;21604;-80
2024/04/15 00:21:18;;;;;;;9.33;3.30;;;;;;;16.89;61.68;100127.19;1413847;92;21466;-80
2024/04/15 00:23:44;;;;;;;11.03;3.00;;;;;;;16.83;62.14;100132.80;1426338;92;22471;-81
2024/04/15 00:26:11;;;;;;;8.73;3.50;;;;;;;16.78;61.99;100134.41;1430015;91;21436;-79
2024/04/15 00:28:37;;;;;;;14.77;3.80;;;;;;;16.72;62.69;100132.48;1448583;90;21523;-80
2024/04/15 00:31:04;;;;;;;7.83;3.70;;;;;;;16.67;62.29;100123.70;1441127;90;22495;-84
2024/04/15 00:33:30;;;;;;;10.67;3.77;;;;;;;16.62;62.38;100117.59;1452431;90;21656;-85
2024/04/15 00:35:56;;;;;;;5.80;3.00;;;;;;;16.60;62.25;100121.48;1441278;90;21480;-82
2024/04/15 00:38:22;;;;;;;10.63;2.93;;;;;;;16.54;62.27;100117.73;1449077;90;21531;-82
2024/04/15 00:40:49;;;;;;;9.43;3.00;;;;;;;16.49;62.19;100110.84;1431839;90;21436;-82
2024/04/15 00:43:15;;;;;;;4.57;2.63;;;;;;;16.44;62.63;100113.25;1448502;90;21457;-82
2024/04/15 00:45:42;;;;;;;8.40;3.40;;;;;;;16.40;62.70;100113.30;1421523;91;21497;-81
2024/04/15 00:48:15;;;;;;;12.77;3.67;;;;;;;16.36;62.72;100108.05;1424107;92;21524;-82
2024/04/15 00:50:46;;;;;;;7.17;3.20;;;;;;;16.31;62.94;100105.13;1426206;92;21694;-83
2024/04/15 00:53:14;;;;;;;6.08;2.95;;;;;;;16.26;63.28;100096.38;1402576;92;21679;-82
2024/04/15 00:55:43;;;;;;;10.43;3.27;;;;;;;16.26;63.43;100095.55;1413675;90;21531;-84
2024/04/15 00:58:09;;;;;;;5.47;3.30;;;;;;;16.19;63.50;100089.62;1432617;91;21494;-84
2024/04/15 01:00:36;;;;;;;10.60;3.27;;;;;;;16.17;63.54;100093.02;1405991;91;21678;-84
2024/04/15 01:03:04;;;;;;;6.93;3.53;;;;;;;16.14;63.92;100092.06;1460559;88;22431;-84
2024/04/15 01:05:32;;;;;;;5.23;2.80;;;;;;;16.13;64.37;100095.73;1481266;88;21580;-83
2024/04/15 01:07:58;;;;;;;14.97;3.27;;;;;;;16.10;64.61;100085.44;1441448;89;21441;-83
2024/04/15 01:10:24;;;;;;;8.23;3.73;;;;;;;16.10;65.17;100100.12;1441385;89;22204;-84
2024/04/15 01:12:52;;;;;;;11.77;3.90;;;;;;;16.08;65.75;100097.33;1458117;89;21432;-83
2024/04/15 01:15:18;;;;;;;7.83;3.83;;;;;;;16.08;65.97;100095.99;1462932;88;21632;-83
2024/04/15 01:17:45;;;;;;;6.70;2.97;;;;;;;16.08;65.72;100087.47;1479271;88;22357;-83
2024/04/15 01:20:11;;;;;;;12.03;3.80;;;;;;;16.08;66.55;100090.65;1466577;88;21432;-84
2024/04/15 01:22:43;;;;;;;7.13;2.63;;;;;;;16.06;65.72;100079.36;1466757;87;21507;-86
2024/04/15 01:25:09;;;;;;;10.83;3.43;;;;;;;16.05;65.68;100080.36;1475212;87;21470;-84
2024/04/15 01:27:37;;;;;;;8.67;3.17;;;;;;;16.03;65.59;100083.23;1478019;87;21567;-82
2024/04/15 01:30:04;;;;;;;9.70;2.90;;;;;;;16.02;65.43;100082.90;1458782;88;21433;-82
2024/04/15 01:32:30;;;;;;;7.73;3.40;;;;;;;15.98;65.86;100081.13;1476875;87;21476;-83
2024/04/15 01:34:56;;;;;;;13.30;3.97;;;;;;;15.96;65.90;100082.33;1473868;87;21397;-82
2024/04/15 01:37:23;;;;;;;9.13;3.40;;;;;;;15.93;66.10;100072.86;1471992;88;21551;-82
2024/04/15 01:39:49;;;;;;;7.67;4.33;;;;;;;15.90;66.27;100065.75;1467513;87;22358;-82
2024/04/15 01:42:15;;;;;;;4.73;3.23;;;;;;;15.85;66.25;100066.83;1468037;88;21352;-83
2024/04/15 01:44:41;;;;;;;11.07;3.70;;;;;;;15.82;66.40;100069.88;1463070;88;21458;-82
2024/04/15 01:47:08;;;;;;;8.07;3.43;;;;;;;15.76;66.62;100060.27;1460490;88;21465;-83
2024/04/15 01:49:34;;;;;;;10.30;3.77;;;;;;;15.74;67.01;100068.18;1463641;88;21455;-81
2024/04/15 01:52:00;;;;;;;15.57;3.73;;;;;;;15.71;67.44;100056.05;1467564;88;22276;-83
2024/04/15 01:54:26;;;;;;;11.53;3.90;;;;;;;15.70;67.98;100054.88;1475238;88;21353;-81
2024/04/15 01:56:53;;;;;;;6.00;3.17;;;;;;;15.70;67.75;100055.70;1462817;88;21420;-83
2024/04/15 01:59:19;;;;;;;6.03;3.47;;;;;;;15.67;67.88;100052.56;1476879;88;21374;-84
2024/04/15 02:01:45;;;;;;;6.33;3.63;;;;;;;15.58;69.40;100068.69;1461571;88;22455;-83
2024/04/15 02:04:11;;;;;;;9.47;2.93;;;;;;;15.44;69.93;100073.55;1474066;88;21426;-83
2024/04/15 02:06:38;;;;;;;8.83;3.30;;;;;;;15.32;69.98;100074.55;1484176;87;21397;-82
2024/04/15 02:09:04;;;;;;;5.33;3.50;;;;;;;15.24;69.44;100063.98;1468446;87;22379;-83
2024/04/15 02:11:30;;;;;;;14.50;3.83;;;;;;;15.18;71.02;100060.73;1480202;87;22313;-82
2024/04/15 02:13:57;;;;;;;9.63;3.50;;;;;;;15.12;70.92;100064.16;1480806;87;21574;-83
2024/04/15 02:16:23;;;;;;;9.17;3.43;;;;;;;15.05;71.75;100063.26;1464556;88;22066;-83
2024/04/15 02:18:49;;;;;;;16.17;4.10;;;;;;;14.93;71.85;100072.70;1476611;88;21433;-83
2024/04/15 02:21:15;;;;;;;12.23;4.80;;;;;;;14.85;72.60;100062.48;1452497;88;22453;-82
2024/04/15 02:23:41;;;;;;;10.00;4.27;;;;;;;14.82;72.98;100060.70;1479738;88;21477;-82
2024/04/15 02:26:08;;;;;;;7.37;3.17;;;;;;;14.77;74.82;100063.91;1458305;87;21426;-82
2024/04/15 02:28:34;;;;;;;12.93;3.37;;;;;;;14.73;74.61;100058.63;1459324;88;21411;-83
2024/04/15 02:31:01;;;;;;;5.80;3.60;;;;;;;14.72;74.14;100056.96;1470416;87;22866;-85
2024/04/15 02:33:27;;;;;;;15.93;4.80;;;;;;;14.71;75.49;100061.98;1456519;89;21515;-84
2024/04/15 02:35:53;;;;;;;11.30;3.60;;;;;;;14.66;76.10;100053.70;1456371;89;21478;-84
2024/04/15 02:38:19;;;;;;;8.87;3.70;;;;;;;14.64;75.83;100051.72;1471125;88;21396;-84
2024/04/15 02:40:46;;;;;;;11.00;3.63;;;;;;;14.61;76.23;100050.75;1454326;88;22403;-81
2024/04/15 02:43:12;;;;;;;12.17;3.77;;;;;;;14.54;77.36;100045.34;1469369;88;21454;-82
2024/04/15 02:45:40;;;;;;;10.60;3.57;;;;;;;14.45;76.45;100039.24;1457524;88;21433;-83
2024/04/15 02:48:06;;;;;;;5.77;3.63;;;;;;;14.40;78.48;100038.13;1471669;88;22419;-84
2024/04/15 02:50:33;;;;;;;8.17;3.20;;;;;;;14.36;79.65;100036.86;1472010;87;21493;-82
2024/04/15 02:52:59;;;;;;;14.00;3.50;;;;;;;14.34;80.77;100037.53;1455906;88;21518;-82
2024/04/15 02:55:25;;;;;;;5.57;3.70;;;;;;;14.34;80.61;100030.87;1456267;88;21429;-82
2024/04/15 02:57:51;;;;;;;10.10;4.60;;;;;;;14.35;81.11;100024.53;1459518;88;22414;-82
2024/04/15 03:00:17;;;;;;;7.70;3.53;;;;;;;14.36;80.17;100024.37;1463853;88;21397;-83
2024/04/15 03:02:44;;;;;;;9.43;3.93;;;;;;;14.34;79.98;100021.05;1451231;89;21485;-81
2024/04/15 03:05:10;;;;;;;8.30;4.20;;;;;;;14.33;79.10;100027.91;1451964;89;21426;-84
2024/04/15 03:07:36;;;;;;;12.27;4.27;;;;;;;14.28;80.52;100027.61;1474563;88;22317;-84
2024/04/15 03:10:02;;;;;;;7.00;3.13;;;;;;;14.19;85.77;100025.53;1454145;89;21464;-82
2024/04/15 03:12:29;;;;;;;7.70;5.30;;;;;;;14.06;83.03;100014.67;1458798;88;21471;-83
2024/04/15 03:14:55;;;;;;;15.47;4.27;;;;;;;14.00;83.00;100019.69;1460647;88;21425;-83
2024/04/15 03:17:21;;;;;;;8.37;4.17;;;;;;;13.96;82.79;100011.77;1471726;88;21699;-83
2024/04/15 03:19:53;;;;;;;5.87;3.13;;;;;;;13.93;83.61;100020.11;1461452;88;21503;-81
2024/04/15 03:22:19;;;;;;;9.13;3.43;;;;;;;13.91;85.60;100024.77;1470265;88;21397;-81
2024/04/15 03:24:49;;;;;;;8.20;4.00;;;;;;;13.87;88.28;100018.67;1481638;88;21555;-80
2024/04/15 03:27:16;;;;;;;;;;;;;;;13.84;88.00;100026.98;1465253;89;21434;-83
2024/04/15 03:29:43;;;;;;;5.20;3.73;;;;;;;13.78;91.34;100017.88;1452266;89;20409;-83
2024/04/15 03:32:09;;;;;;;12.07;4.43;;;;;;;13.76;89.10;100009.28;1463117;89;21508;-82
2024/04/15 03:34:36;;;;;;;11.00;3.70;;;;;;;13.74;87.48;100003.30;1446717;89;21393;-83
2024/04/15 03:37:02;;;;;;;11.27;3.90;;;;;;;13.72;87.92;99995.99;1471462;87;21480;-83
2024/04/15 03:39:28;;;;;;;6.30;3.83;;;;;;;13.71;87.52;99991.19;1456882;88;21517;-82
2024/04/15 03:41:54;;;;;;;11.60;3.93;;;;;;;13.68;88.19;99985.41;1461384;88;23183;-82
2024/04/15 03:44:20;;;;;;;9.13;3.77;;;;;;;13.67;89.95;99990.41;1477187;88;21525;-84
2024/04/15 03:46:46;;;;;;;23.47;5.87;;;;;;;13.68;92.11;99982.73;1467494;88;21458;-85
2024/04/15 03:49:12;;;;;;;10.73;4.10;;;;;;;13.70;90.46;99985.55;1459928;88;21614;-85
2024/04/15 03:51:38;;;;;;;16.57;4.10;;;;;;;13.71;91.60;99983.71;1473513;88;21568;-84
2024/04/15 03:54:05;;;;;;;5.53;4.90;;;;;;;13.68;90.66;99982.73;1451350;88;22493;-84
2024/04/15 03:56:31;;;;;;;13.80;5.33;;;;;;;13.69;91.07;99983.05;1464765;88;23221;-84
2024/04/15 03:58:57;;;;;;;11.40;5.07;;;;;;;13.69;90.57;99981.22;1457120;88;21370;-84
2024/04/15 04:01:23;;;;;;;9.47;4.33;;;;;;;13.69;91.17;99984.38;1481017;88;21421;-83
2024/04/15 04:03:50;;;;;;;18.13;4.63;;;;;;;13.67;90.92;99973.94;1496763;88;22973;-95
2024/04/15 04:06:16;;;;;;;10.37;4.50;;;;;;;13.68;91.81;99974.77;1476559;88;21415;-92
2024/04/15 04:08:42;;;;;;;12.10;4.30;;;;;;;13.72;91.43;99978.70;1487235;88;21451;-90
2024/04/15 04:11:09;;;;;;;14.53;4.70;;;;;;;13.76;91.97;99974.70;1489113;88;21325;-93
2024/04/15 04:13:39;;;;;;;9.30;3.77;;;;;;;13.80;91.28;99961.86;1473269;88;21489;-91
2024/04/15 04:16:07;;;;;;;18.77;4.63;;;;;;;13.86;90.42;99960.63;1477947;88;21528;-90
2024/04/15 04:18:34;;;;;;;13.23;4.17;;;;;;;13.90;89.39;99951.30;1473452;88;21442;-89
2024/04/15 04:21:00;;;;;;;11.40;4.43;;;;;;;13.96;88.78;99941.26;1452405;89;22235;-94
2024/04/15 04:23:26;;;;;;;12.57;5.60;;;;;;;14.03;88.09;99941.35;1464271;88;21433;-92
2024/04/15 04:25:53;;;;;;;15.97;4.47;;;;;;;14.09;87.16;99939.80;1473702;88;21348;-89
2024/04/15 04:28:20;;;;;;;15.23;4.83;;;;;;;14.14;86.40;99926.27;1464128;88;21548;-88
2024/04/15 04:30:46;;;;;;;11.73;4.47;;;;;;;14.22;86.07;99919.53;1457143;88;21377;-89
2024/04/15 04:33:13;;;;;;;11.97;5.33;;;;;;;14.32;86.05;99916.58;1474087;88;21378;-88
2024/04/15 04:35:40;;;;;;;12.27;5.30;;;;;;;14.43;85.54;99916.63;1471221;88;21554;-90
2024/04/15 04:38:07;;;;;;;21.73;4.70;;;;;;;14.54;84.95;99919.36;1459420;88;22378;-89
2024/04/15 04:40:33;;;;;;;6.97;4.10;;;;;;;14.63;83.80;99917.73;1476529;88;21497;-90
2024/04/15 04:43:00;;;;;;;18.13;5.00;;;;;;;14.74;82.78;99921.77;1454276;88;21492;-90
2024/04/15 04:45:26;;;;;;;14.07;5.17;;;;;;;14.80;81.55;99921.01;1467205;88;21666;-89
2024/04/15 04:47:53;;;;;;;12.83;4.33;;;;;;;14.86;80.40;99914.92;1462921;88;21405;-90
2024/04/15 04:50:21;;;;;;;9.90;4.07;;;;;;;14.91;79.37;99905.05;1481320;87;21404;-89
2024/04/15 04:52:48;;;;;;;20.23;5.33;;;;;;;14.97;78.33;99906.14;1482589;88;22409;-88
2024/04/15 04:55:15;;;;;;;11.33;4.40;;;;;;;15.00;77.32;99897.77;1476345;87;21410;-89
2024/04/15 04:57:41;;;;;;;20.93;4.70;;;;;;;15.03;77.04;99897.38;1479553;88;22335;-84
2024/04/15 05:00:09;;;;;;;13.70;4.27;;;;;;;15.07;76.37;99891.98;1480078;88;21507;-88
2024/04/15 05:02:35;;;;;;;10.13;4.63;;;;;;;15.11;76.23;99891.94;1468812;87;21382;-87
2024/04/15 05:05:01;;;;;;;10.13;3.93;;;;;;;15.16;75.61;99894.83;1465986;88;21508;-88
2024/04/15 05:07:28;;;;;;;10.33;4.27;;;;;;;15.20;75.25;99890.79;1468856;88;21448;-85
2024/04/15 05:09:54;;;;;;;15.40;4.50;;;;;;;15.27;74.80;99892.98;1481136;87;21596;-87
2024/04/15 05:12:21;;;;;;;8.60;4.13;;;;;;;15.32;74.35;99882.59;1487614;87;21411;-87
2024/04/15 05:14:48;;;;;;;13.13;4.30;;;;;;;15.36;74.04;99880.35;1458820;88;21603;-87
2024/04/15 05:17:15;;;;;;;8.37;3.60;;;;;;;15.38;73.92;99885.00;1432067;91;21401;-86
2024/04/15 05:19:41;;;;;;;14.17;4.53;;;;;;;15.41;73.46;99886.45;1435923;91;21612;-86
2024/04/15 05:22:07;;;;;;;8.53;4.17;;;;;;;15.42;72.83;99880.09;1410483;91;22352;-86
2024/04/15 05:24:33;;;;;;;14.93;4.07;;;;;;;15.45;72.56;99871.70;1431376;90;21477;-87
2024/04/15 05:27:00;;;;;;;18.50;5.00;;;;;;;15.50;72.15;99870.63;1429992;90;21384;-86
2024/04/15 05:29:26;;;;;;;19.37;4.97;;;;;;;15.53;71.72;99873.73;1429367;90;21608;-86
2024/04/15 05:31:52;;;;;;;14.47;4.70;;;;;;;15.58;71.62;99873.16;1413810;91;21428;-86
2024/04/15 05:34:19;;;;;;;7.93;4.30;;;;;;;15.60;71.39;99869.80;1415291;91;21707;-87
2024/04/15 05:36:46;;;;;;;12.73;4.10;;;;;;;15.66;70.81;99873.02;1413129;92;21481;-88
2024/04/15 05:39:12;;;;;;;16.77;5.07;;;;;;;15.71;70.87;99861.81;1427267;91;21481;-87
2024/04/15 05:41:38;;;;;;;22.30;5.43;;;;;;;15.80;70.71;99861.97;1429210;91;22434;-88
2024/04/15 05:44:06;;;;;;;14.50;3.97;;;;;;;15.86;70.64;99853.69;1409934;91;21973;-88
2024/04/15 05:46:33;;;;;;;16.03;5.37;;;;;;;15.95;70.33;99859.18;1431745;90;21435;-88
2024/04/15 05:48:59;;;;;;;12.03;4.13;;;;;;;16.03;69.56;99862.21;1433916;90;21435;-89
2024/04/15 05:51:25;;;;;;;22.97;4.83;;;;;;;16.11;68.88;99857.53;1428818;90;22434;-88
2024/04/15 05:53:51;;;;;;;17.43;5.60;;;;;;;16.19;68.66;99860.53;1435400;90;21384;-86
2024/04/15 05:56:18;;;;;;;11.37;4.07;;;;;;;16.25;68.02;99855.73;1438191;90;21654;-87
2024/04/15 05:58:44;;;;;;;13.03;4.73;;;;;;;16.30;67.49;99844.47;1432022;90;21369;-87
2024/04/15 06:01:11;;;;;;;12.00;4.57;;;;;;;16.40;67.08;99840.89;1441297;90;22417;-85
2024/04/15 06:03:37;;;;;;;7.10;4.30;;;;;;;16.46;66.76;99834.78;1442029;90;21362;-92
2024/04/15 06:06:04;;;;;;;15.20;4.63;;;;;;;16.55;66.09;99830.91;1430043;90;21649;-79
2024/04/15 06:08:30;;;;;;;14.23;4.10;;;;;;;16.64;65.21;99823.01;1440797;90;21505;-80
2024/04/15 06:10:56;;;;;;;13.70;4.80;;;;;;;16.78;65.41;99825.23;1431546;90;21413;-80
2024/04/15 06:13:23;;;;;;;12.53;5.03;;;;;;;16.97;65.42;99828.95;1435103;90;21563;-79
2024/04/15 06:15:49;;;;;;;11.57;5.20;;;;;;;17.16;64.92;99826.52;1427895;90;21390;-79
2024/04/15 06:18:15;;;;;;;12.57;4.93;;;;;;;17.32;63.78;99824.75;1438144;90;22762;-79
2024/04/15 06:20:41;;;;;;;6.97;3.87;;;;;;;17.45;63.25;99831.44;1440994;90;21495;-79
2024/04/15 06:23:07;;;;;;;9.80;3.73;;;;;;;17.64;63.17;99816.93;1439121;90;21518;-78
2024/04/15 06:25:33;;;;;;;13.30;4.90;;;;;;;17.82;62.67;99807.75;1429410;90;21457;-78
2024/04/15 06:28:00;;;;;;;16.30;5.60;;;;;;;18.00;61.75;99807.89;1438533;90;21413;-79
2024/04/15 06:30:26;;;;;;;19.53;4.70;;;;;;;18.15;61.03;99796.09;1436414;90;21450;-80
2024/04/15 06:32:52;;;;;;;18.50;5.53;;;;;;;18.29;60.18;99791.51;1405583;92;22511;-78
2024/04/15 06:35:19;;;;;;;13.17;5.80;;;;;;;18.41;60.01;99787.96;1431952;89;21429;-80
2024/04/15 06:37:45;;;;;;;20.43;5.10;;;;;;;18.55;59.17;99790.55;1473858;86;21537;-79
2024/04/15 06:40:11;;;;;;;23.35;5.37;;;;;;;18.68;58.60;99790.48;1401814;88;21345;-80
2024/04/15 06:42:38;;;;;;;14.33;6.10;;;;;;;18.82;57.97;99786.70;1408385;88;21411;-80
2024/04/15 06:45:05;;;;;;;18.20;5.25;;;;;;;18.99;56.86;99778.95;1400428;87;21317;-79
2024/04/15 06:47:31;;;;;;;27.85;5.05;;;;;;;19.11;55.83;99771.02;1539763;88;21414;-79
2024/04/15 06:49:57;;;;;;;13.48;4.47;;;;;;;19.21;55.63;99771.32;1453068;87;22336;-79
2024/04/15 06:52:24;;;;;;;20.02;5.17;;;;;;;19.34;55.26;99771.21;1457229;88;21487;-81
2024/04/15 06:54:50;;;;;;;13.45;4.85;;;;;;;19.46;55.03;99764.59;1462371;88;21449;-79
2024/04/15 06:57:17;;;;;;;18.15;5.00;;;;;;;19.62;54.95;99761.84;1460571;87;22432;-79
2024/04/15 06:59:43;;;;;;;15.78;4.83;;;;;;;19.75;52.99;99753.68;1460954;88;21553;-80
2024/04/15 07:02:12;;;;;;;17.05;4.70;;;;;;;19.90;52.87;99751.14;1456386;88;21375;-80
2024/04/15 07:04:37;;;;;;;27.95;5.40;;;;;;;20.03;52.81;99751.80;1456400;88;21382;-79
2024/04/15 07:07:04;;;;;;;12.23;4.33;;;;;;;20.19;52.78;99758.93;1460783;88;21531;-81
2024/04/15 07:09:30;;;;;;;20.15;6.15;;;;;;;20.26;50.79;99755.65;1468036;88;21653;-79
2024/04/15 07:11:56;;;;;;;20.62;4.75;;;;;;;20.32;50.45;99758.77;1476623;87;21494;-80
2024/04/15 07:14:22;;;;;;;6.20;4.00;;;;;;;20.40;49.92;99754.92;1474824;88;21455;-80
2024/04/15 07:16:48;;;;;;;11.85;4.72;;;;;;;20.47;49.87;99752.97;1468969;88;21442;-78
2024/04/15 07:19:14;;;;;;;11.28;4.72;;;;;;;20.60;50.43;99754.17;1468040;88;22553;-81
2024/04/15 07:21:41;;;;;;;62.98;7.37;;;;;;;20.73;49.84;99756.63;1473821;88;22076;-80
2024/04/15 07:24:07;;;;;;;17.10;3.95;;;;;;;20.82;49.48;99749.05;1417091;87;21478;-81
2024/04/15 07:26:33;;;;;;;12.60;4.17;;;;;;;20.93;49.11;99733.46;1448106;87;21479;-82
2024/04/15 07:28:59;;;;;;;10.58;3.92;;;;;;;21.05;48.76;99739.38;1476889;87;21582;-80
2024/04/15 07:31:25;;;;;;;15.93;4.42;;;;;;;21.22;48.18;99722.02;1472989;87;21457;-80
2024/04/15 07:33:51;;;;;;;12.45;3.62;;;;;;;21.22;48.18;99722.02;1474133;88;22550;-80
2024/04/15 07:36:18;;;;;;;13.03;5.85;;;;;;;21.40;47.94;99728.10;1473629;87;22001;-79
2024/04/15 07:38:44;;;;;;;17.77;5.05;;;;;;;21.49;47.70;99717.83;1478100;88;21456;-81
2024/04/15 07:41:10;;;;;;;12.33;4.33;;;;;;;21.60;47.31;99720.19;1478041;87;21434;-81
2024/04/15 07:43:37;;;;;;;12.13;4.47;;;;;;;21.80;46.90;99714.41;1471037;87;21638;-81
2024/04/15 07:46:03;;;;;;;17.52;3.85;;;;;;;21.93;46.54;99710.09;1479735;87;21659;-80
2024/04/15 07:48:29;;;;;;;21.30;4.45;;;;;;;21.93;46.54;99710.09;1484154;87;21433;-79
2024/04/15 07:50:55;;;;;;;17.77;4.72;;;;;;;22.04;45.99;99711.94;1483615;88;21463;-81
2024/04/15 07:53:22;;;;;;;10.35;3.83;;;;;;;22.17;45.87;99723.48;1478982;88;21445;-80
2024/04/15 07:55:48;;;;;;;19.32;4.53;;;;;;;22.25;44.99;99705.61;1483439;87;21560;-82
2024/04/15 07:58:14;;;;;;;21.73;5.45;;;;;;;22.35;44.60;99708.47;1479565;87;21441;-80
2024/04/15 08:00:40;;;;;;;16.50;4.30;;;;;;;22.44;44.64;99696.77;1487564;87;22465;-80
2024/04/15 08:03:07;;;;;;;11.83;3.55;;;;;;;22.50;43.37;99702.02;1485176;88;21478;-81
2024/04/15 08:05:33;;;;;;;15.32;4.22;;;;;;;22.59;43.93;99698.92;1486175;87;21374;-80
2024/04/15 08:07:59;;;;;;;17.45;3.87;;;;;;;22.75;44.00;99690.00;1485764;87;21449;-80
2024/04/15 08:10:26;;;;;;;15.63;3.70;;;;;;;22.92;43.18;99698.09;1473418;88;21603;-80
2024/04/15 08:12:52;;;;;;;15.48;3.42;;;;;;;22.98;41.87;99701.18;1484650;88;21590;-79
2024/04/15 08:15:19;;;;;;;14.18;4.28;;;;;;;23.05;41.90;99696.98;1480928;87;22440;-80
2024/04/15 08:17:45;;;;;;;8.05;3.30;;;;;;;23.18;42.03;99697.97;1485676;87;21470;-81
2024/04/15 08:20:12;;;;;;;18.23;3.80;;;;;;;23.39;41.66;99701.25;1483210;87;21563;-80
2024/04/15 08:22:38;;;;;;;10.95;3.52;;;;;;;23.49;41.62;99701.91;1480272;87;21426;-80
2024/04/15 08:25:08;;;;;;;22.60;4.12;;;;;;;23.59;41.70;99702.56;1478442;87;22446;-79
2024/04/15 08:27:32;;;;;;;16.10;3.58;;;;;;;23.63;41.02;99697.77;1485087;87;21660;-80
2024/04/15 08:29:59;;;;;;;15.25;3.87;;;;;;;23.71;40.87;99692.50;1479726;87;21441;-82
2024/04/15 08:32:25;;;;;;;11.75;3.58;;;;;;;23.79;40.75;99683.92;1479452;87;22462;-79
2024/04/15 08:34:52;;;;;;;12.28;3.27;;;;;;;23.89;41.01;99686.48;1480499;87;22350;-80
2024/04/15 08:37:18;;;;;;;16.07;4.87;;;;;;;24.02;40.95;99692.83;1478795;87;22358;-79
2024/04/15 08:39:44;;;;;;;18.85;3.95;;;;;;;23.98;40.40;99693.07;1483262;87;22336;-80
2024/04/15 08:42:49;;;;;;;17.25;4.03;;;;;;;23.98;41.18;99686.31;1483667;87;21485;-79
2024/04/15 08:45:27;;;;;;;23.30;3.50;;;;;;;24.07;41.65;99679.38;1486509;87;22314;-80
2024/04/15 08:47:53;;;;;;;12.98;3.45;;;;;;;24.12;41.21;99678.08;1474267;87;21531;-79
2024/04/15 08:50:21;;;;;;;15.98;4.05;;;;;;;24.16;40.89;99673.78;1395449;87;21368;-81
2024/04/15 08:52:50;;;;;;;15.38;3.92;;;;;;;24.29;41.34;99667.16;1402266;87;21464;-80
2024/04/15 08:55:17;;;;;;;17.50;3.75;;;;;;;24.45;41.23;99664.89;1394479;88;21339;-80
2024/04/15 08:57:49;;;;;;;15.05;3.47;;;;;;;24.54;40.49;99667.94;1396902;87;21339;-80
2024/04/15 09:00:20;;;;;;;17.52;4.28;;;;;;;24.55;40.76;99666.88;1559376;87;21302;-80
2024/04/15 09:02:49;;;;;;;17.42;3.22;;;;;;;24.56;40.39;99656.88;1395870;87;21561;-82
2024/04/15 09:05:16;;;;;;;16.73;4.08;;;;;;;24.63;40.29;99646.12;1558135;87;21425;-81
2024/04/15 09:07:46;;;;;;;17.23;3.05;;;;;;;24.78;40.05;99648.66;1403640;87;21419;-79
2024/04/15 09:10:13;;;;;;;9.33;3.85;;;;;;;24.89;39.58;99645.76;1394829;88;21412;-81
2024/04/15 09:12:45;;;;;;;13.78;3.27;;;;;;;24.96;39.34;99639.56;1397900;87;21516;-80
2024/04/15 09:15:13;;;;;;;16.57;3.30;;;;;;;25.05;38.84;99631.77;1556952;87;22278;-80
2024/04/15 09:17:40;;;;;;;10.90;3.20;;;;;;;25.15;38.96;99627.80;1397063;87;21427;-79
2024/04/15 09:20:08;;;;;;;12.25;3.37;;;;;;;25.23;38.36;99625.66;1406285;88;22342;-81
2024/04/15 09:22:36;;;;;;;15.65;4.25;;;;;;;25.27;38.12;99614.05;1395568;87;21361;-79
2024/04/15 09:25:02;;;;;;;14.65;3.47;;;;;;;25.28;37.71;99597.25;1396814;87;22337;-81
2024/04/15 09:27:29;;;;;;;17.55;3.70;;;;;;;25.33;37.57;99607.56;1398460;87;21391;-80
2024/04/15 09:29:58;;;;;;;19.00;4.60;;;;;;;25.34;37.67;99593.48;1399162;87;21339;-80
2024/04/15 09:32:25;;;;;;;12.23;3.02;;;;;;;25.40;36.93;99587.00;1400732;87;21497;-80
2024/04/15 09:35:00;;;;;;;15.93;4.10;;;;;;;25.51;37.13;99587.31;1559180;87;21384;-79
2024/04/15 09:37:27;;;;;;;13.88;3.42;;;;;;;25.67;36.91;99574.63;1559178;88;21405;-85
2024/04/15 09:39:54;;;;;;;13.58;3.85;;;;;;;25.72;35.89;99576.52;1461317;88;21793;-87
2024/04/15 09:42:21;;;;;;;17.45;3.45;;;;;;;25.71;36.31;99572.19;1476704;87;21478;-85
2024/04/15 09:44:51;;;;;;;13.62;3.37;;;;;;;25.80;36.53;99572.73;1475439;87;21736;-88
2024/04/15 09:47:18;;;;;;;26.27;4.20;;;;;;;25.82;36.74;99570.61;1479638;87;21648;-85
2024/04/15 09:49:47;;;;;;;18.30;4.33;;;;;;;25.82;35.78;99573.84;1482733;87;21544;-84
2024/04/15 09:52:22;;;;;;;16.35;3.90;;;;;;;25.88;36.04;99561.95;1484278;87;22317;-83
2024/04/15 09:54:53;;;;;;;26.52;3.67;;;;;;;25.94;36.05;99574.41;1472759;88;22320;-84
2024/04/15 09:57:25;;;;;;;26.55;6.17;;;;;;;26.03;36.30;99566.56;1483731;87;21597;-87
2024/04/15 10:00:01;;;;;;;19.98;3.95;;;;;;;26.14;36.23;99557.34;1482815;87;21461;-85
2024/04/15 10:02:38;;;;;;;23.38;3.83;;;;;;;26.27;36.03;99548.67;1445748;88;21611;-85
2024/04/15 10:05:25;;;;;;;12.65;3.90;;;;;;;26.43;36.51;99544.03;1484575;87;22350;-85
2024/04/15 10:07:57;;;;;;;26.75;4.08;;;;;;;26.55;36.26;99544.58;1463243;88;21455;-86
2024/04/15 10:10:26;;;;;;;19.45;4.20;;;;;;;26.63;35.89;99549.19;1399564;88;21397;-86
2024/04/15 10:12:56;;;;;;;20.05;4.78;;;;;;;26.47;36.12;99545.13;1404233;87;21553;-85
2024/04/15 10:15:24;;;;;;;16.82;3.65;;;;;;;26.45;36.03;99545.13;1429451;88;21367;-84
2024/04/15 10:18:14;;;;;;;14.23;3.62;;;;;;;26.43;35.78;99544.03;1476785;88;21485;-83
2024/04/15 10:20:43;;;;;;;18.05;3.70;;;;;;;26.43;35.98;99526.39;1483527;87;22945;-86
2024/04/15 10:23:24;;;;;;;11.63;3.62;;;;;;;26.40;35.80;99531.02;1483751;87;21530;-84
2024/04/15 10:25:49;;;;;;;21.00;3.92;;;;;;;26.32;35.69;99519.36;1404738;87;22174;-86
2024/04/15 10:28:15;;;;;;;27.07;4.92;;;;;;;26.28;35.44;99522.36;1404590;88;22219;-83
2024/04/15 10:30:47;;;;;;;10.80;3.85;;;;;;;26.09;35.90;99530.23;1516030;88;21418;-85
2024/04/15 10:33:20;;;;;;;11.75;3.87;;;;;;;25.99;36.00;99535.13;1478382;87;21603;-85
2024/04/15 10:35:46;;;;;;;21.40;4.27;;;;;;;25.88;36.65;99526.71;1483925;87;22988;-85
2024/04/15 10:38:14;;;;;;;10.23;4.25;;;;;;;25.84;36.63;99528.34;1478047;87;21768;-86
2024/04/15 10:40:46;;;;;;;16.62;4.08;;;;;;;25.75;36.51;99528.04;1483120;87;21514;-85
2024/04/15 10:43:17;;;;;;;16.75;4.03;;;;;;;25.76;36.89;99534.27;1486264;87;21433;-86
2024/04/15 10:45:46;;;;;;;7.97;4.05;;;;;;;25.71;36.97;99528.84;1479109;88;21441;-86
2024/04/15 10:54:32;;;;;;;16.55;4.95;;;;;;;25.40;37.87;99525.52;1470034;88;21515;-86
2024/04/15 10:57:00;;;;;;;23.98;5.33;;;;;;;25.25;37.95;99523.32;1399099;88;21405;-85
2024/04/15 11:03:26;;;;;;;27.55;4.80;;;;;;;25.13;38.21;99521.63;1470628;88;21642;-87
2024/04/15 11:05:52;;;;;;;16.02;4.53;;;;;;;24.91;38.91;99519.63;1468852;88;21470;-86
2024/04/15 11:08:19;;;;;;;20.12;4.62;;;;;;;24.84;39.07;99531.25;1468989;88;21618;-87
2024/04/15 11:10:45;;;;;;;11.88;4.87;;;;;;;24.69;39.07;99521.98;1468585;88;21494;-86
2024/04/15 11:13:12;;;;;;;11.68;4.58;;;;;;;24.60;39.62;99523.56;1467485;88;21605;-86
2024/04/15 11:15:39;;;;;;;25.70;6.33;;;;;;;24.45;40.02;99526.15;1471823;88;21441;-85
2024/04/15 11:18:14;;;;;;;21.42;4.37;;;;;;;24.37;40.22;99521.20;1507331;87;21625;-87
2024/04/15 11:20:41;;;;;;;22.35;4.28;;;;;;;24.31;40.30;99517.12;1473895;87;21419;-88
2024/04/15 11:23:08;;;;;;;14.35;4.45;;;;;;;24.22;40.55;99514.61;1474839;87;22409;-85
2024/04/15 11:25:35;;;;;;;10.32;4.78;;;;;;;24.18;40.64;99508.10;1471677;87;21727;-88
2024/04/15 11:28:03;;;;;;;19.57;5.33;;;;;;;24.13;40.76;99513.46;1464956;88;21529;-88
2024/04/15 11:30:29;;;;;;;9.23;3.87;;;;;;;24.05;41.06;99503.97;1472033;87;21406;-87
2024/04/15 11:32:59;;;;;;;12.93;3.50;;;;;;;24.07;41.13;99498.28;1473787;87;21434;-88
2024/04/15 11:35:25;;;;;;;;;;;;;;;24.02;41.28;99495.54;1477355;87;21960;-86